| Date | Time | Temp. (oF) | Dew Point (oF) | Rel. Hum. (%) | Press. (in.) | Wind Dir. | Wind Speed (mph) | Hourly Rainfall (in.) |
|
|---|---|---|---|---|---|---|---|---|---|
| 1 | 10/24 | 00:00 | 67 | 63 | 89 | 29.82 | ESE | 7 | 0.00 |
| 2 | 10/23 | 23:00 | 66 | 63 | 91 | 29.85 | E | 10 | 0.00 |
| 3 | 10/23 | 22:00 | 67 | 64 | 92 | 29.88 | ESE | 8 | 0.00 |
| 4 | 10/23 | 21:00 | 68 | 63 | 87 | 29.89 | ESE | 7 | 0.00 |
| 5 | 10/23 | 20:00 | 67 | 62 | 87 | 29.92 | ESE | 8 | 0.00 |
| 6 | 10/23 | 19:00 | 67 | 62 | 86 | 29.94 | E | 9 | 0.00 |
| 7 | 10/23 | 18:00 | 69 | 62 | 80 | 29.95 | ESE | 7 | 0.00 |
| 8 | 10/23 | 17:00 | 71 | 63 | 77 | 29.99 | ESE | 7 | 0.00 |
| 9 | 10/23 | 16:00 | 72 | 62 | 71 | 30.01 | ESE | 9 | 0.00 |
| 10 | 10/23 | 15:00 | 72 | 60 | 68 | 30.04 | SSE | 3 | 0.00 |
| 11 | 10/23 | 14:00 | 72 | 61 | 70 | 30.06 | ESE | 7 | 0.00 |
| 12 | 10/23 | 13:00 | 69 | 62 | 80 | 30.11 | SSE | 4 | 0.00 |
| 13 | 10/23 | 12:00 | 68 | 62 | 82 | 30.16 | SE | 9 | 0.00 |
| 14 | 10/23 | 11:00 | 64 | 62 | 94 | 30.18 | SSE | 3 | 0.00 |
| 15 | 10/23 | 10:00 | 62 | 61 | 99 | 30.21 | SSE | 1 | 0.00 |
| 16 | 10/23 | 09:00 | 60 | 59 | 100 | 30.23 | SE | 2 | 0.00 |
| 17 | 10/23 | 08:00 | 59 | 59 | 100 | 30.24 | E | 0 | 0.00 |
| 18 | 10/23 | 07:00 | 58 | 58 | 100 | 30.24 | E | 2 | 0.00 |
| 19 | 10/23 | 06:00 | 55 | 54 | 100 | 30.26 | NW | 4 | 0.00 |
| 20 | 10/23 | 05:00 | 56 | 55 | 100 | 30.26 | ENE | 1 | 0.00 |
| 21 | 10/23 | 04:00 | 55 | 54 | 100 | 30.27 | ESE | 3 | 0.00 |
| 22 | 10/23 | 03:00 | 54 | 54 | 100 | 30.28 | ENE | 1 | 0.00 |
| 23 | 10/23 | 02:00 | 53 | 53 | 100 | 30.29 | SE | 1 | 0.00 |
| 24 | 10/23 | 01:00 | 54 | 53 | 99 | 30.30 | ENE | 0 | 0.00 |